createdAt,value
2024-01-16T00:01:57.235Z,95803.91
2024-01-16T00:04:23.771Z,95801.97
2024-01-16T00:06:50.468Z,95791.78
2024-01-16T00:09:17.059Z,95790.13
2024-01-16T00:11:43.688Z,95787.94
2024-01-16T00:14:10.322Z,95783.81
2024-01-16T00:16:36.892Z,95785.06
2024-01-16T00:19:03.524Z,95783.16
2024-01-16T00:21:30.236Z,95794.13
2024-01-16T00:23:56.795Z,95791.91
2024-01-16T00:26:23.398Z,95789.78
2024-01-16T00:28:49.934Z,95792.41
2024-01-16T00:31:16.471Z,95796.84
2024-01-16T00:33:43.078Z,95792.91
2024-01-16T00:36:09.640Z,95794.28
2024-01-16T00:38:36.226Z,95786.72
2024-01-16T00:41:02.853Z,95789.53
2024-01-16T00:43:29.399Z,95787.41
2024-01-16T00:45:55.933Z,95794.81
2024-01-16T00:48:22.636Z,95787.31
2024-01-16T00:50:49.324Z,95790.28
2024-01-16T00:53:15.868Z,95783.13
2024-01-16T00:55:42.401Z,95788.53
2024-01-16T00:58:08.954Z,95787.56
2024-01-16T01:00:35.605Z,95787.41
2024-01-16T01:03:02.516Z,95789.50
2024-01-16T01:05:29.274Z,95797.22
2024-01-16T01:07:55.978Z,95790.00
2024-01-16T01:10:22.549Z,95790.47
2024-01-16T01:12:49.138Z,95791.78
2024-01-16T01:15:15.721Z,95795.81
2024-01-16T01:17:42.424Z,95791.34
2024-01-16T01:20:09.119Z,95793.63
2024-01-16T01:22:35.800Z,95798.28
2024-01-16T01:25:02.489Z,95789.75
2024-01-16T01:27:29.045Z,95798.28
2024-01-16T01:29:55.637Z,95794.41
2024-01-16T01:32:22.314Z,95789.66
2024-01-16T01:34:48.896Z,95790.19
2024-01-16T01:37:15.433Z,95793.72
2024-01-16T01:39:41.963Z,95786.88
2024-01-16T01:42:08.582Z,95787.31
2024-01-16T01:44:35.120Z,95794.44
2024-01-16T01:47:01.669Z,95795.94
2024-01-16T01:49:28.402Z,95795.69
2024-01-16T01:51:55.008Z,95798.25
2024-01-16T01:54:21.574Z,95806.13
2024-01-16T01:56:48.149Z,95806.56
2024-01-16T01:59:14.657Z,95803.94
2024-01-16T02:01:41.112Z,95803.94
2024-01-16T02:04:07.492Z,95805.69
2024-01-16T02:06:33.898Z,95798.66
2024-01-16T02:09:00.303Z,95802.47
2024-01-16T02:11:26.757Z,95798.78
2024-01-16T02:13:53.182Z,95802.84
2024-01-16T02:16:19.660Z,95799.44
2024-01-16T02:18:46.084Z,95798.47
2024-01-16T02:21:12.505Z,95797.72
2024-01-16T02:23:38.940Z,95793.28
2024-01-16T02:26:05.387Z,95792.38
2024-01-16T02:28:31.808Z,95786.44
2024-01-16T02:30:58.209Z,95791.06
2024-01-16T02:33:24.819Z,95784.06
2024-01-16T02:35:51.310Z,95788.19
2024-01-16T02:38:17.842Z,95779.31
2024-01-16T02:40:44.239Z,95783.28
2024-01-16T02:43:10.617Z,95788.44
2024-01-16T02:45:37.056Z,95790.47
2024-01-16T02:48:03.628Z,95789.31
2024-01-16T02:50:30.184Z,95788.09
2024-01-16T02:52:56.589Z,95791.97
2024-01-16T02:55:22.996Z,95785.19
2024-01-16T02:57:49.599Z,95786.16
2024-01-16T03:00:16.126Z,95778.53
2024-01-16T03:02:42.835Z,95777.38
2024-01-16T03:05:09.688Z,95783.53
2024-01-16T03:07:36.514Z,95789.06
2024-01-16T03:10:03.065Z,95792.84
2024-01-16T03:12:29.607Z,95793.00
2024-01-16T03:14:56.174Z,95791.84
2024-01-16T03:17:22.838Z,95787.75
2024-01-16T03:19:49.425Z,95780.34
2024-01-16T03:22:15.972Z,95781.94
2024-01-16T03:24:42.497Z,95781.03
2024-01-16T03:27:09.044Z,95775.22
2024-01-16T03:29:35.692Z,95780.53
2024-01-16T03:32:02.448Z,95782.66
2024-01-16T03:34:29.160Z,95779.47
2024-01-16T03:36:55.716Z,95776.16
2024-01-16T03:39:22.258Z,95780.91
2024-01-16T03:41:48.885Z,95783.34
2024-01-16T03:44:15.526Z,95777.06
2024-01-16T03:46:42.250Z,95766.97
2024-01-16T03:49:08.972Z,95770.31
2024-01-16T03:51:35.526Z,95779.19
2024-01-16T03:54:02.050Z,95777.94
2024-01-16T03:56:28.586Z,95778.31
2024-01-16T03:58:55.157Z,95779.44
2024-01-16T04:01:21.697Z,95775.44
2024-01-16T04:03:48.243Z,95759.00
2024-01-16T04:06:14.896Z,95763.19
2024-01-16T04:08:41.495Z,95760.38
2024-01-16T04:11:08.168Z,95762.97
2024-01-16T04:13:34.712Z,95749.06
2024-01-16T04:16:01.277Z,95750.44
2024-01-16T04:18:27.840Z,95742.38
2024-01-16T04:20:54.503Z,95739.25
2024-01-16T04:23:21.119Z,95742.63
2024-01-16T04:25:47.702Z,95750.97
2024-01-16T04:28:14.228Z,95739.38
2024-01-16T04:30:40.802Z,95733.19
2024-01-16T04:33:07.632Z,95733.53
2024-01-16T04:35:34.258Z,95732.38
2024-01-16T04:38:00.846Z,95736.50
2024-01-16T04:40:27.370Z,95742.03
2024-01-16T04:42:53.901Z,95736.41
2024-01-16T04:45:20.430Z,95736.53
2024-01-16T04:47:47.089Z,95739.56
2024-01-16T04:50:13.716Z,95741.03
2024-01-16T04:52:40.378Z,95739.00
2024-01-16T04:55:06.964Z,95744.22
2024-01-16T04:57:33.496Z,95741.22
2024-01-16T05:00:00.129Z,95730.47
2024-01-16T05:02:26.742Z,95727.66
2024-01-16T05:04:53.298Z,95734.22
2024-01-16T05:07:19.924Z,95721.97
2024-01-16T05:09:46.520Z,95732.34
2024-01-16T05:12:13.042Z,95728.00
2024-01-16T05:14:39.688Z,95733.38
2024-01-16T05:17:06.272Z,95729.19
2024-01-16T05:19:32.870Z,95725.25
2024-01-16T05:21:59.434Z,95727.50
2024-01-16T05:24:26.044Z,95717.53
2024-01-16T05:26:52.685Z,95715.78
2024-01-16T05:29:19.276Z,95711.03
2024-01-16T05:31:45.833Z,95710.44
2024-01-16T05:34:12.419Z,95706.44
2024-01-16T05:36:39.045Z,95706.44
2024-01-16T05:39:05.588Z,95703.56
2024-01-16T05:41:33.135Z,95696.59
2024-01-16T05:44:01.195Z,95694.88
2024-01-16T05:46:27.697Z,95696.06
2024-01-16T05:48:54.427Z,95692.94
2024-01-16T05:51:21.191Z,95686.78
2024-01-16T05:53:47.775Z,95686.66
2024-01-16T05:56:14.353Z,95688.19
2024-01-16T05:58:40.916Z,95687.34
2024-01-16T06:01:07.503Z,95685.56
2024-01-16T06:03:34.039Z,95686.78
2024-01-16T06:06:00.764Z,95691.53
2024-01-16T06:08:27.496Z,95694.22
2024-01-16T06:10:54.085Z,95705.72
2024-01-16T06:13:20.647Z,95700.34
2024-01-16T06:15:47.225Z,95706.22
2024-01-16T06:18:13.934Z,95698.50
2024-01-16T06:20:40.560Z,95691.75
2024-01-16T06:23:07.175Z,95692.94
2024-01-16T06:25:33.740Z,95692.06
2024-01-16T06:28:03.375Z,95686.03
2024-01-16T06:30:30.888Z,95697.78
2024-01-16T06:32:57.632Z,95680.09
2024-01-16T06:35:24.686Z,95688.75
2024-01-16T06:37:51.274Z,95694.22
2024-01-16T06:40:17.880Z,95688.13
2024-01-16T06:42:44.472Z,95692.44
2024-01-16T06:45:10.995Z,95689.50
2024-01-16T06:47:37.638Z,95686.03
2024-01-16T06:50:04.248Z,95686.72
2024-01-16T06:52:30.778Z,95683.44
2024-01-16T06:54:57.337Z,95689.44
2024-01-16T06:57:23.845Z,95698.81
2024-01-16T06:59:50.395Z,95694.41
2024-01-16T07:02:16.996Z,95698.69
2024-01-16T07:04:43.600Z,95695.38
2024-01-16T07:07:10.134Z,95699.84
2024-01-16T07:09:36.704Z,95705.84
2024-01-16T07:12:03.274Z,95710.00
2024-01-16T07:14:29.915Z,95708.16
2024-01-16T07:16:56.545Z,95717.50
2024-01-16T07:19:23.372Z,95710.81
2024-01-16T07:21:49.948Z,95708.72
2024-01-16T07:24:16.503Z,95709.44
2024-01-16T07:26:43.086Z,95709.25
2024-01-16T07:29:09.687Z,95702.16
2024-01-16T07:31:36.241Z,95711.19
2024-01-16T07:34:02.930Z,95703.19
2024-01-16T07:36:29.489Z,95701.06
2024-01-16T07:38:56.072Z,95698.47
2024-01-16T07:41:22.648Z,95704.13
2024-01-16T07:43:50.293Z,95713.16
2024-01-16T07:46:16.970Z,95717.19
2024-01-16T07:48:43.579Z,95714.44
2024-01-16T07:51:10.265Z,95717.97
2024-01-16T07:53:36.806Z,95711.78
2024-01-16T07:56:03.349Z,95718.09
2024-01-16T07:58:29.886Z,95724.78
2024-01-16T08:00:56.599Z,95728.91
2024-01-16T08:03:23.310Z,95728.75
2024-01-16T08:05:49.920Z,95739.16
2024-01-16T08:08:16.660Z,95735.88
2024-01-16T08:10:43.247Z,95730.31
2024-01-16T08:13:09.785Z,95736.47
2024-01-16T08:15:36.320Z,95734.94
2024-01-16T08:18:03.010Z,95733.59
2024-01-16T08:20:29.646Z,95741.03
2024-01-16T08:22:56.221Z,95744.16
2024-01-16T08:25:23.823Z,95732.06
2024-01-16T08:27:50.369Z,95737.78
2024-01-16T08:30:17.043Z,95739.38
2024-01-16T08:32:43.770Z,95735.00
2024-01-16T08:35:10.417Z,95740.44
2024-01-16T08:37:37.046Z,95740.22
2024-01-16T08:40:03.613Z,95735.84
2024-01-16T08:42:30.164Z,95741.00
2024-01-16T08:44:56.777Z,95737.91
2024-01-16T08:47:23.518Z,95736.06
2024-01-16T08:49:50.235Z,95735.31
2024-01-16T08:52:16.816Z,95719.16
2024-01-16T08:54:43.356Z,95716.06
2024-01-16T08:57:09.966Z,95729.06
2024-01-16T08:59:36.527Z,95732.06
2024-01-16T09:02:03.082Z,95737.13
2024-01-16T09:04:29.706Z,95735.84
2024-01-16T09:06:56.407Z,95724.56
2024-01-16T09:09:23.161Z,95732.94
2024-01-16T09:11:49.796Z,95738.38
2024-01-16T09:14:16.473Z,95734.41
2024-01-16T09:16:43.006Z,95732.06
2024-01-16T09:19:09.677Z,95734.44
2024-01-16T09:21:36.311Z,95737.66
2024-01-16T09:24:02.960Z,95736.38
2024-01-16T09:26:29.564Z,95732.19
2024-01-16T09:28:56.097Z,95734.00
2024-01-16T09:31:22.626Z,95734.66
2024-01-16T09:33:49.247Z,95743.13
2024-01-16T09:36:15.937Z,95740.31
2024-01-16T09:38:42.528Z,95735.97
2024-01-16T09:41:09.054Z,95733.75
2024-01-16T09:43:35.638Z,95741.66
2024-01-16T09:46:03.226Z,95752.66
2024-01-16T09:48:30.362Z,95754.13
2024-01-16T09:50:57.074Z,95754.72
2024-01-16T09:53:23.825Z,95755.25
2024-01-16T09:55:50.351Z,95758.09
2024-01-16T09:58:16.885Z,95755.97
2024-01-16T10:00:43.462Z,95750.34
2024-01-16T10:03:10.045Z,95747.69
2024-01-16T10:05:36.701Z,95744.53
2024-01-16T10:08:03.283Z,95739.63
2024-01-16T10:10:38.638Z,95729.38
2024-01-16T10:13:13.302Z,95727.16
2024-01-16T10:15:39.894Z,95736.97
2024-01-16T10:18:06.703Z,95740.50
2024-01-16T10:20:33.397Z,95745.34
2024-01-16T10:22:59.932Z,95752.50
2024-01-16T10:25:26.550Z,95732.47
2024-01-16T10:27:53.088Z,95725.06
2024-01-16T10:30:19.701Z,95726.38
2024-01-16T10:32:46.453Z,95725.81
2024-01-16T10:35:13.836Z,95742.06
2024-01-16T10:37:40.722Z,95735.50
2024-01-16T10:40:07.245Z,95735.31
2024-01-16T10:42:33.821Z,95724.22
2024-01-16T10:45:00.407Z,95713.78
2024-01-16T10:47:27.102Z,95715.19
2024-01-16T10:49:53.707Z,95711.06
2024-01-16T10:52:21.704Z,95720.22
2024-01-16T10:54:49.426Z,95709.06
2024-01-16T10:57:16.007Z,95708.78
2024-01-16T10:59:42.459Z,95709.53
2024-01-16T11:02:08.854Z,95702.97
2024-01-16T11:04:35.271Z,95704.94
2024-01-16T11:07:01.674Z,95701.50
2024-01-16T11:09:28.122Z,95705.28
2024-01-16T11:11:54.594Z,95707.41
2024-01-16T11:14:23.510Z,95707.41
2024-01-16T11:16:50.720Z,95707.28
2024-01-16T11:19:31.439Z,95719.56
2024-01-16T11:22:03.812Z,95713.28
2024-01-16T11:24:30.368Z,95708.16
2024-01-16T11:26:56.845Z,95697.31
2024-01-16T11:29:23.425Z,95701.69
2024-01-16T11:31:49.990Z,95701.06
2024-01-16T11:34:16.643Z,95699.69
2024-01-16T11:36:43.203Z,95705.31
2024-01-16T11:39:09.635Z,95701.34
2024-01-16T11:41:42.427Z,95703.66
2024-01-16T11:44:09.442Z,95688.84
2024-01-16T11:46:35.861Z,95680.00
2024-01-16T11:49:02.333Z,95689.31
2024-01-16T11:51:28.774Z,95681.63
2024-01-16T11:53:55.261Z,95682.53
2024-01-16T11:56:33.731Z,95676.03
2024-01-16T11:59:04.563Z,95658.84
2024-01-16T12:01:31.102Z,95654.50
2024-01-16T12:03:57.696Z,95650.25
2024-01-16T12:06:24.422Z,95650.63
2024-01-16T12:08:51.073Z,95643.50
2024-01-16T12:11:18.541Z,95639.75
2024-01-16T12:13:45.103Z,95628.31
2024-01-16T12:16:11.619Z,95630.91
2024-01-16T12:18:42.749Z,95624.25
2024-01-16T12:21:12.019Z,95617.09
2024-01-16T12:23:42.035Z,95611.06
2024-01-16T12:26:13.415Z,95600.78
2024-01-16T12:28:40.046Z,95601.88
2024-01-16T12:31:06.655Z,95597.28
2024-01-16T12:33:33.616Z,95603.50
2024-01-16T12:36:00.399Z,95600.88
2024-01-16T12:38:27.053Z,95600.94
2024-01-16T12:40:53.695Z,95599.53
2024-01-16T12:43:20.228Z,95592.88
2024-01-16T12:45:46.788Z,95581.66
2024-01-16T12:48:13.379Z,95577.75
2024-01-16T12:50:40.137Z,95575.44
2024-01-16T12:53:07.379Z,95574.09
2024-01-16T12:55:34.063Z,95561.28
2024-01-16T12:58:00.582Z,95567.13
2024-01-16T13:00:27.148Z,95554.66
2024-01-16T13:02:53.764Z,95553.78
2024-01-16T13:05:20.434Z,95555.56
2024-01-16T13:07:47.078Z,95545.41
2024-01-16T13:10:14.093Z,95536.03
2024-01-16T13:12:40.772Z,95531.63
2024-01-16T13:15:07.406Z,95529.50
2024-01-16T13:17:34.040Z,95520.50
2024-01-16T13:20:00.639Z,95516.97
2024-01-16T13:22:36.200Z,95520.03
2024-01-16T13:25:09.826Z,95515.59
2024-01-16T13:27:36.491Z,95509.84
2024-01-16T13:30:03.099Z,95507.16
2024-01-16T13:32:29.731Z,95510.78
2024-01-16T13:34:56.400Z,95507.78
2024-01-16T13:37:22.962Z,95505.31
2024-01-16T13:39:49.570Z,95503.00
2024-01-16T13:42:16.582Z,95491.00
2024-01-16T13:44:43.190Z,95498.78
2024-01-16T13:47:13.179Z,95499.38
2024-01-16T13:49:42.487Z,95499.91
2024-01-16T13:52:09.247Z,95493.28
2024-01-16T13:54:35.770Z,95489.06
2024-01-16T13:57:07.153Z,95488.66
2024-01-16T13:59:35.750Z,95490.97
2024-01-16T14:02:03.020Z,95484.63
2024-01-16T14:04:29.661Z,95483.75
2024-01-16T14:07:10.045Z,95480.53
2024-01-16T14:09:39.782Z,95485.84
2024-01-16T14:12:06.419Z,95494.00
2024-01-16T14:14:33.006Z,95484.53
2024-01-16T14:17:01.750Z,95483.47
2024-01-16T14:19:28.798Z,95483.53
2024-01-16T14:21:55.404Z,95479.13
2024-01-16T14:24:21.951Z,95488.81
2024-01-16T14:26:48.595Z,95478.38
2024-01-16T14:29:15.169Z,95486.97
2024-01-16T14:31:41.715Z,95486.03
2024-01-16T14:34:08.308Z,95472.19
2024-01-16T14:36:34.894Z,95481.41
2024-01-16T14:39:01.557Z,95487.13
2024-01-16T14:41:28.209Z,95473.97
2024-01-16T14:43:54.735Z,95477.50
2024-01-16T14:46:24.100Z,95477.25
2024-01-16T14:48:51.130Z,95471.94
2024-01-16T14:51:17.797Z,95469.22
2024-01-16T14:53:44.406Z,95468.34
2024-01-16T14:56:11.057Z,95457.00
2024-01-16T14:58:37.580Z,95465.75
2024-01-16T15:01:04.158Z,95467.56
2024-01-16T15:03:30.770Z,95465.22
2024-01-16T15:05:57.399Z,95464.75
2024-01-16T15:08:24.265Z,95469.91
2024-01-16T15:10:50.856Z,95477.31
2024-01-16T15:13:17.409Z,95476.41
2024-01-16T15:15:43.930Z,95466.09
2024-01-16T15:18:10.579Z,95463.78
2024-01-16T15:20:37.166Z,95461.59
2024-01-16T15:23:03.688Z,95471.00
2024-01-16T15:25:30.273Z,95471.00
2024-01-16T15:27:56.798Z,95451.97
2024-01-16T15:30:23.422Z,95443.22
2024-01-16T15:32:50.151Z,95446.94
2024-01-16T15:35:16.770Z,95443.28
2024-01-16T15:37:43.422Z,95441.81
2024-01-16T15:40:09.968Z,95447.00
2024-01-16T15:42:36.375Z,95449.09
2024-01-16T15:45:02.843Z,95450.66
2024-01-16T15:47:29.376Z,95460.72
2024-01-16T15:49:55.841Z,95448.31
2024-01-16T15:52:22.249Z,95463.53
2024-01-16T15:54:48.634Z,95467.06
2024-01-16T15:57:15.139Z,95473.91
2024-01-16T15:59:41.638Z,95475.50
2024-01-16T16:02:08.065Z,95476.03
2024-01-16T16:04:34.468Z,95483.16
2024-01-16T16:07:00.971Z,95484.66
2024-01-16T16:09:27.391Z,95481.97
2024-01-16T16:11:53.891Z,95492.22
2024-01-16T16:14:20.370Z,95495.81
2024-01-16T16:16:46.790Z,95499.91
2024-01-16T16:19:13.358Z,95491.41
2024-01-16T16:21:39.855Z,95499.63
2024-01-16T16:24:06.239Z,95501.66
2024-01-16T16:26:32.636Z,95494.38
2024-01-16T16:28:59.039Z,95506.22
2024-01-16T16:31:26.967Z,95497.78
2024-01-16T16:33:54.074Z,95506.81
2024-01-16T16:36:20.540Z,95512.66
2024-01-16T16:38:47.118Z,95518.91
2024-01-16T16:41:13.666Z,95507.50
2024-01-16T16:43:40.212Z,95513.56
2024-01-16T16:46:06.777Z,95505.94
2024-01-16T16:48:33.445Z,95505.97
2024-01-16T16:51:00.147Z,95505.59
2024-01-16T16:53:30.141Z,95503.03
2024-01-16T16:55:59.627Z,95494.66
2024-01-16T16:58:26.195Z,95494.28
2024-01-16T17:00:52.984Z,95495.09
2024-01-16T17:03:19.531Z,95496.47
2024-01-16T17:05:46.209Z,95502.09
2024-01-16T17:08:12.932Z,95503.69
2024-01-16T17:10:39.485Z,95502.81
2024-01-16T17:13:06.006Z,95499.03
2024-01-16T17:15:32.637Z,95489.78
2024-01-16T17:17:59.286Z,95487.19
2024-01-16T17:20:26.121Z,95486.25
2024-01-16T17:22:52.682Z,95487.38
2024-01-16T17:25:19.283Z,95497.78
2024-01-16T17:27:45.817Z,95500.06
2024-01-16T17:30:12.442Z,95499.66
2024-01-16T17:32:39.142Z,95502.59
2024-01-16T17:35:05.771Z,95497.78
2024-01-16T17:37:32.299Z,95502.78
2024-01-16T17:39:58.945Z,95495.22
2024-01-16T17:42:25.516Z,95487.53
2024-01-16T17:44:52.177Z,95487.59
2024-01-16T17:47:18.752Z,95488.34
2024-01-16T17:49:45.411Z,95486.50
2024-01-16T17:52:11.994Z,95485.38
2024-01-16T17:54:38.541Z,95481.50
2024-01-16T17:57:05.140Z,95485.50
2024-01-16T17:59:31.801Z,95482.78
2024-01-16T18:01:58.363Z,95479.91
2024-01-16T18:04:24.895Z,95472.94
2024-01-16T18:06:51.460Z,95479.06
2024-01-16T18:09:18.071Z,95489.84
2024-01-16T18:11:44.615Z,95482.56
2024-01-16T18:14:11.143Z,95483.38
2024-01-16T18:16:37.673Z,95472.50
2024-01-16T18:19:04.416Z,95471.22
2024-01-16T18:21:31.119Z,95476.47
2024-01-16T18:23:57.700Z,95472.75
2024-01-16T18:26:24.398Z,95483.50
2024-01-16T18:28:50.958Z,95475.00
2024-01-16T18:31:19.850Z,95482.13
2024-01-16T18:33:48.283Z,95477.25
2024-01-16T18:36:14.837Z,95480.44
2024-01-16T18:38:41.710Z,95481.09
2024-01-16T18:41:08.438Z,95485.84
2024-01-16T18:43:34.972Z,95483.50
2024-01-16T18:46:01.536Z,95491.63
2024-01-16T18:48:28.258Z,95482.03
2024-01-16T18:50:55.059Z,95482.31
2024-01-16T18:53:21.935Z,95478.47
2024-01-16T18:55:48.584Z,95473.91
2024-01-16T18:58:15.135Z,95466.63
2024-01-16T19:00:41.778Z,95461.44
2024-01-16T19:03:08.442Z,95453.66
2024-01-16T19:05:35.107Z,95445.50
2024-01-16T19:08:01.909Z,95448.88
2024-01-16T19:10:28.502Z,95445.41
2024-01-16T19:12:55.068Z,95440.75
2024-01-16T19:15:21.574Z,95442.63
2024-01-16T19:17:48.266Z,95435.97
2024-01-16T19:20:14.854Z,95439.38
2024-01-16T19:22:41.389Z,95435.72
2024-01-16T19:25:07.916Z,95434.50
2024-01-16T19:27:34.449Z,95433.25
2024-01-16T19:30:01.083Z,95426.25
2024-01-16T19:32:27.738Z,95424.66
2024-01-16T19:34:54.362Z,95407.31
2024-01-16T19:37:20.896Z,95398.63
2024-01-16T19:39:47.437Z,95392.53
2024-01-16T19:42:13.960Z,95400.53
2024-01-16T19:44:40.536Z,95388.16
2024-01-16T19:47:07.136Z,95398.16
2024-01-16T19:49:33.724Z,95384.88
2024-01-16T19:52:00.265Z,95384.06
2024-01-16T19:54:26.873Z,95387.31
2024-01-16T19:56:53.508Z,95386.25
2024-01-16T19:59:20.084Z,95396.53
2024-01-16T20:01:46.630Z,95393.53
2024-01-16T20:04:13.157Z,95391.38
2024-01-16T20:06:39.921Z,95384.19
2024-01-16T20:09:06.668Z,95376.38
2024-01-16T20:11:33.455Z,95368.81
2024-01-16T20:14:00.071Z,95365.00
2024-01-16T20:16:26.618Z,95360.38
2024-01-16T20:18:53.254Z,95359.66
2024-01-16T20:21:19.872Z,95356.13
2024-01-16T20:23:46.432Z,95355.13
2024-01-16T20:26:13.008Z,95362.22
2024-01-16T20:28:39.561Z,95339.50
2024-01-16T20:31:06.218Z,95341.34
2024-01-16T20:33:32.944Z,95344.69
2024-01-16T20:35:59.624Z,95328.34
2024-01-16T20:38:26.184Z,95327.50
2024-01-16T20:40:52.730Z,95325.50
2024-01-16T20:43:19.270Z,95322.63
2024-01-16T20:45:45.820Z,95316.28
2024-01-16T20:48:12.515Z,95306.28
2024-01-16T20:50:39.116Z,95310.41
2024-01-16T20:53:05.681Z,95309.28
2024-01-16T20:55:32.247Z,95287.81
2024-01-16T20:57:58.923Z,95291.69
2024-01-16T21:00:25.494Z,95298.59
2024-01-16T21:02:52.127Z,95286.44
2024-01-16T21:05:18.751Z,95281.81
2024-01-16T21:07:45.695Z,95279.78
2024-01-16T21:10:12.369Z,95274.59
2024-01-16T21:12:38.920Z,95265.97
2024-01-16T21:15:05.541Z,95267.22
2024-01-16T21:17:32.233Z,95272.22
2024-01-16T21:19:58.811Z,95271.38
2024-01-16T21:22:33.241Z,95283.09
2024-01-16T21:25:03.100Z,95277.06
2024-01-16T21:27:29.641Z,95284.22
2024-01-16T21:29:56.240Z,95275.47
2024-01-16T21:32:22.852Z,95258.59
2024-01-16T21:34:49.459Z,95275.56
2024-01-16T21:37:16.015Z,95268.81
2024-01-16T21:39:42.557Z,95264.16
2024-01-16T21:42:09.095Z,95260.06
2024-01-16T21:44:35.730Z,95256.84
2024-01-16T21:47:02.327Z,95248.06
2024-01-16T21:49:28.924Z,95237.41
2024-01-16T21:51:55.472Z,95246.03
2024-01-16T21:54:21.986Z,95243.00
2024-01-16T21:56:48.564Z,95227.25
2024-01-16T21:59:15.207Z,95223.72
2024-01-16T22:01:41.736Z,95217.25
2024-01-16T22:04:08.260Z,95212.09
2024-01-16T22:06:34.863Z,95209.22
2024-01-16T22:09:01.609Z,95206.72
2024-01-16T22:11:28.378Z,95203.41
2024-01-16T22:13:55.012Z,95198.09
2024-01-16T22:16:21.540Z,95199.03
2024-01-16T22:18:49.955Z,95183.00
2024-01-16T22:21:16.789Z,95185.72
2024-01-16T22:23:43.540Z,95194.19
2024-01-16T22:26:10.095Z,95195.47
2024-01-16T22:28:36.626Z,95192.84
2024-01-16T22:31:03.193Z,95202.34
2024-01-16T22:33:29.934Z,95188.25
2024-01-16T22:35:56.693Z,95187.06
2024-01-16T22:38:23.284Z,95179.22
2024-01-16T22:40:49.824Z,95182.16
2024-01-16T22:43:16.380Z,95181.00
2024-01-16T22:45:42.947Z,95171.38
2024-01-16T22:48:09.593Z,95163.94
2024-01-16T22:50:36.205Z,95159.16
2024-01-16T22:53:03.227Z,95156.22
2024-01-16T22:55:29.802Z,95146.50
2024-01-16T22:57:56.335Z,95146.94
2024-01-16T23:00:22.875Z,95136.81
2024-01-16T23:02:49.636Z,95131.16
2024-01-16T23:05:16.266Z,95135.78
2024-01-16T23:07:42.778Z,95130.06
2024-01-16T23:10:09.369Z,95133.09
2024-01-16T23:12:35.890Z,95132.56
2024-01-16T23:15:02.535Z,95148.13
2024-01-16T23:17:29.361Z,95148.47
2024-01-16T23:19:55.934Z,95147.69
2024-01-16T23:22:22.536Z,95138.53
2024-01-16T23:24:49.043Z,95128.31
2024-01-16T23:27:15.565Z,95124.66
2024-01-16T23:29:42.100Z,95128.22
2024-01-16T23:32:08.659Z,95130.28
2024-01-16T23:34:35.253Z,95127.06
2024-01-16T23:37:01.830Z,95125.94
2024-01-16T23:39:28.406Z,95119.03
2024-01-16T23:41:54.955Z,95121.13
2024-01-16T23:44:21.521Z,95103.19
2024-01-16T23:46:48.093Z,95087.97
2024-01-16T23:49:14.645Z,95086.91
2024-01-16T23:51:41.162Z,95082.53
2024-01-16T23:54:07.728Z,95069.06
2024-01-16T23:56:34.266Z,95071.97
2024-01-16T23:59:00.811Z,95066.97
